Time;durP1;ratioP1;P1;durP2;ratioP2;P2;SDS_P1;SDS_P2;PMS_P1;PMS_P2;Temp;Humidity;BMP_temperature;BMP_pressure;BME280_temperature;BME280_humidity;BME280_pressure;Samples;Min_cycle;Max_cycle;Signal;HPM_P1;HPM_P2
2022/05/25 00:01:32;;;;;;;3.13;1.93;;;14.10;99.90;;;;;;5069138;28;20459;-67
2022/05/25 00:03:59;;;;;;;3.40;1.63;;;14.10;99.90;;;;;;5070946;28;20478;-66
2022/05/25 00:06:26;;;;;;;2.23;1.40;;;14.10;99.90;;;;;;5073642;28;20454;-67
2022/05/25 00:08:53;;;;;;;2.97;1.80;;;14.20;99.90;;;;;;5073674;28;20812;-67
2022/05/25 00:11:22;;;;;;;2.90;1.80;;;14.20;99.90;;;;;;5073177;28;20453;-66
2022/05/25 00:13:49;;;;;;;3.17;1.90;;;14.10;99.90;;;;;;5073572;28;20447;-67
2022/05/25 00:16:16;;;;;;;2.63;1.60;;;14.20;99.90;;;;;;5073787;28;20560;-66
2022/05/25 00:21:24;;;;;;;3.47;1.90;;;14.30;99.90;;;;;;5072944;28;20433;-67
2022/05/25 00:23:50;;;;;;;7.40;2.67;;;14.40;99.90;;;;;;5073176;28;20482;-67
2022/05/25 00:26:17;;;;;;;2.87;1.80;;;14.50;99.90;;;;;;5073596;28;20446;-67
2022/05/25 00:28:45;;;;;;;3.80;2.00;;;14.50;99.90;;;;;;5073169;28;20457;-66
2022/05/25 00:31:12;;;;;;;5.83;2.43;;;14.50;99.90;;;;;;5073113;28;20442;-67
2022/05/25 00:33:39;;;;;;;3.67;2.10;;;14.50;99.90;;;;;;5073176;28;20458;-67
2022/05/25 00:36:06;;;;;;;3.50;1.77;;;14.50;99.90;;;;;;5073188;28;20447;-66
2022/05/25 00:38:33;;;;;;;3.77;1.80;;;14.50;99.90;;;;;;5072983;28;20955;-67
2022/05/25 00:41:00;;;;;;;3.03;1.80;;;14.50;99.90;;;;;;5072859;28;20504;-67
2022/05/25 00:43:27;;;;;;;2.80;1.80;;;14.50;99.90;;;;;;5073074;28;20482;-67
2022/05/25 00:45:59;;;;;;;2.90;1.70;;;14.60;99.90;;;;;;5073039;28;20446;-66
2022/05/25 00:48:33;;;;;;;2.03;1.30;;;14.50;99.90;;;;;;5072971;28;20451;-66
2022/05/25 00:51:15;;;;;;;2.43;1.80;;;14.60;99.90;;;;;;5072465;28;20467;-66
2022/05/25 00:53:44;;;;;;;2.37;1.40;;;14.60;99.90;;;;;;5073111;28;20817;-66
2022/05/25 00:56:15;;;;;;;2.63;1.43;;;14.50;99.90;;;;;;5072983;28;20445;-66
2022/05/25 00:58:46;;;;;;;2.77;1.10;;;14.50;99.90;;;;;;5072791;28;20443;-64
2022/05/25 01:01:14;;;;;;;2.03;1.03;;;14.60;99.90;;;;;;5072357;28;20446;-66
2022/05/25 01:03:41;;;;;;;3.23;1.37;;;14.60;99.90;;;;;;5072490;28;20853;-65
2022/05/25 01:06:16;;;;;;;2.87;1.40;;;14.60;99.90;;;;;;5072903;28;20453;-66
2022/05/25 01:08:53;;;;;;;2.10;1.40;;;14.60;99.90;;;;;;5072519;28;20932;-67
2022/05/25 01:11:35;;;;;;;2.13;1.20;;;14.60;99.90;;;;;;5072328;28;20450;-66
2022/05/25 01:14:13;;;;;;;2.90;1.20;;;14.60;99.90;;;;;;5072489;28;21155;-66
2022/05/25 01:16:50;;;;;;;5.30;1.40;;;14.60;99.90;;;;;;5071935;28;20493;-65
2022/05/25 01:19:39;;;;;;;2.03;1.23;;;14.50;99.90;;;;;;5072491;28;20555;-66
2022/05/25 01:22:21;;;;;;;2.53;1.30;;;14.40;99.90;;;;;;5072341;28;20944;-67
2022/05/25 01:24:58;;;;;;;2.57;1.00;;;14.40;99.90;;;;;;5072741;28;20569;-66
2022/05/25 01:27:34;;;;;;;2.77;1.50;;;14.40;99.90;;;;;;5072624;28;20886;-66
2022/05/25 01:30:15;;;;;;;2.10;1.13;;;14.40;99.90;;;;;;5072141;28;20853;-66
2022/05/25 01:33:04;;;;;;;2.00;1.20;;;14.40;99.90;;;;;;5072318;28;20439;-67
2022/05/25 01:35:39;;;;;;;2.13;1.40;;;14.40;99.90;;;;;;5072374;28;20458;-67
2022/05/25 01:38:14;;;;;;;2.13;1.07;;;14.40;99.90;;;;;;5072129;28;20442;-67
2022/05/25 01:40:46;;;;;;;2.07;0.97;;;14.40;99.90;;;;;;5071782;28;20478;-65
2022/05/25 01:43:18;;;;;;;1.80;0.93;;;14.30;99.90;;;;;;5071905;28;20490;-67
2022/05/25 01:45:50;;;;;;;3.30;1.13;;;14.30;99.90;;;;;;5072027;28;20451;-66
2022/05/25 01:48:20;;;;;;;4.37;1.27;;;14.20;99.90;;;;;;5072054;28;20446;-67
2022/05/25 01:50:49;;;;;;;1.97;1.07;;;14.20;99.90;;;;;;5071517;28;20473;-66
2022/05/25 01:53:19;;;;;;;2.20;1.10;;;14.20;99.90;;;;;;5071760;28;20451;-66
2022/05/25 01:55:51;;;;;;;1.83;1.00;;;14.20;99.90;;;;;;5071606;28;20474;-67
2022/05/25 01:58:20;;;;;;;2.43;0.97;;;14.20;99.90;;;;;;5071713;28;20944;-67
2022/05/25 02:00:50;;;;;;;2.73;1.20;;;14.10;99.90;;;;;;5070994;28;20893;-67
2022/05/25 02:06:27;;;;;;;2.53;1.20;;;14.00;99.90;;;;;;5071515;28;20552;-67
2022/05/25 02:09:11;;;;;;;2.57;1.00;;;13.90;99.90;;;;;;5071600;28;20447;-67
2022/05/25 02:11:42;;;;;;;3.10;1.13;;;13.90;99.90;;;;;;5071735;28;20450;-67
2022/05/25 02:14:18;;;;;;;2.00;1.00;;;14.00;99.90;;;;;;5071461;28;20446;-66
2022/05/25 02:16:55;;;;;;;4.03;1.20;;;14.00;99.90;;;;;;5071629;28;20447;-66
2022/05/25 02:19:25;;;;;;;2.20;1.30;;;14.00;99.90;;;;;;5071384;28;20556;-66
2022/05/25 02:21:55;;;;;;;2.20;1.20;;;14.00;99.90;;;;;;5071028;28;20455;-66
2022/05/25 02:24:28;;;;;;;2.20;1.20;;;13.90;99.90;;;;;;5071163;28;20478;-67
2022/05/25 02:27:01;;;;;;;2.20;1.33;;;13.90;99.90;;;;;;5070301;28;20451;-67
2022/05/25 02:29:35;;;;;;;3.73;1.70;;;13.80;99.90;;;;;;5070777;28;20973;-67
2022/05/25 02:32:09;;;;;;;1.90;1.00;;;13.80;99.90;;;;;;5070764;28;20451;-66
2022/05/25 02:34:37;;;;;;;4.27;1.50;;;13.80;99.90;;;;;;5071088;28;20871;-66
2022/05/25 02:37:05;;;;;;;2.30;1.20;;;13.80;99.90;;;;;;5070801;28;20447;-66
2022/05/25 02:39:33;;;;;;;2.40;1.30;;;13.70;99.90;;;;;;5070634;28;20528;-67
2022/05/25 02:42:00;;;;;;;3.90;1.07;;;13.70;99.90;;;;;;5070659;28;20451;-66
2022/05/25 02:44:26;;;;;;;2.17;1.00;;;13.80;99.90;;;;;;5070766;28;20522;-66
2022/05/25 02:46:54;;;;;;;3.63;1.10;;;13.90;99.90;;;;;;5070702;28;20450;-66
2022/05/25 02:49:22;;;;;;;1.90;1.10;;;13.90;99.90;;;;;;5070532;28;20482;-66
2022/05/25 02:51:49;;;;;;;2.80;1.17;;;13.90;99.90;;;;;;5070212;28;20490;-66
2022/05/25 02:54:17;;;;;;;2.33;1.37;;;13.80;99.90;;;;;;5070824;28;20447;-64
2022/05/25 02:56:44;;;;;;;2.00;1.23;;;13.80;99.90;;;;;;5070744;28;20447;-66
2022/05/25 02:59:11;;;;;;;1.73;0.83;;;13.80;99.90;;;;;;5070564;28;20549;-65
2022/05/25 03:01:39;;;;;;;1.97;1.30;;;13.80;99.90;;;;;;5070011;28;20459;-66
2022/05/25 03:04:06;;;;;;;2.23;1.20;;;13.70;99.90;;;;;;5070296;28;20581;-66
2022/05/25 03:06:34;;;;;;;2.07;1.03;;;13.70;99.90;;;;;;5070182;28;20447;-65
2022/05/25 03:09:01;;;;;;;3.10;1.10;;;13.60;99.90;;;;;;5070312;28;20450;-66
2022/05/25 03:11:28;;;;;;;2.40;1.20;;;13.60;99.90;;;;;;5070039;28;20447;-66
2022/05/25 03:13:55;;;;;;;9.67;1.83;;;13.60;99.90;;;;;;5070101;28;20478;-67
2022/05/25 03:16:22;;;;;;;3.60;0.90;;;13.50;99.90;;;;;;5070065;28;20451;-66
2022/05/25 03:18:50;;;;;;;2.53;1.10;;;13.50;99.90;;;;;;5069865;28;20486;-66
2022/05/25 03:21:17;;;;;;;3.43;1.00;;;13.50;99.90;;;;;;5069899;28;20446;-66
2022/05/25 03:23:45;;;;;;;2.90;1.10;;;13.50;99.90;;;;;;5070111;28;20481;-66
2022/05/25 03:26:13;;;;;;;3.00;1.20;;;13.50;99.90;;;;;;5070051;28;20447;-66
2022/05/25 03:28:40;;;;;;;2.10;1.20;;;13.50;99.90;;;;;;5070072;28;20876;-66
2022/05/25 03:31:06;;;;;;;2.00;0.97;;;13.50;99.90;;;;;;5069547;28;20473;-66
2022/05/25 03:33:34;;;;;;;4.43;1.30;;;13.50;99.90;;;;;;5069765;28;20447;-66
2022/05/25 03:36:00;;;;;;;3.40;1.77;;;13.40;99.90;;;;;;5070009;28;20439;-64
2022/05/25 03:38:28;;;;;;;5.50;1.40;;;13.30;99.90;;;;;;5069806;28;20451;-66
2022/05/25 03:40:57;;;;;;;2.47;1.10;;;13.30;99.90;;;;;;5069431;28;21019;-66
2022/05/25 03:43:28;;;;;;;6.20;1.40;;;13.40;99.90;;;;;;5069888;28;20822;-66
2022/05/25 03:45:55;;;;;;;3.60;1.20;;;13.30;99.90;;;;;;5069717;28;20446;-66
2022/05/25 03:48:22;;;;;;;4.70;1.27;;;13.40;99.90;;;;;;5069759;28;20451;-66
2022/05/25 03:50:49;;;;;;;1.70;1.00;;;13.40;99.90;;;;;;5069640;28;20471;-66
2022/05/25 03:53:16;;;;;;;2.00;1.23;;;13.40;99.90;;;;;;5069738;28;20535;-66
2022/05/25 03:55:43;;;;;;;2.27;1.30;;;13.50;99.90;;;;;;5069269;28;20447;-66
2022/05/25 03:58:12;;;;;;;2.30;1.13;;;13.50;99.90;;;;;;5069642;28;21212;-66
2022/05/25 04:00:39;;;;;;;2.90;1.17;;;13.60;99.90;;;;;;5068432;28;20570;-66
2022/05/25 04:03:06;;;;;;;3.43;1.40;;;13.60;99.90;;;;;;5069457;28;20805;-65
2022/05/25 04:05:34;;;;;;;2.27;1.20;;;13.50;99.90;;;;;;5069481;28;20478;-66
2022/05/25 04:08:01;;;;;;;2.37;1.20;;;13.50;99.90;;;;;;5069498;28;20459;-67
2022/05/25 04:10:29;;;;;;;1.70;0.90;;;13.60;99.90;;;;;;5068965;28;20977;-67
2022/05/25 04:12:56;;;;;;;2.40;1.10;;;13.60;99.90;;;;;;5069803;28;20460;-67
2022/05/25 04:15:26;;;;;;;2.37;1.23;;;13.50;99.90;;;;;;5069484;28;20438;-67
2022/05/25 04:17:53;;;;;;;4.60;1.10;;;13.50;99.90;;;;;;5070024;28;20477;-67
2022/05/25 04:20:21;;;;;;;2.43;0.90;;;13.50;99.90;;;;;;5069123;28;20476;-66
2022/05/25 04:22:48;;;;;;;2.27;1.13;;;13.60;99.90;;;;;;5069652;28;20542;-67
2022/05/25 04:25:18;;;;;;;3.40;1.20;;;13.70;99.90;;;;;;5069340;28;21118;-66
2022/05/25 04:27:46;;;;;;;2.73;1.10;;;13.60;99.90;;;;;;5069873;28;20490;-66
2022/05/25 04:30:16;;;;;;;1.93;0.93;;;13.70;99.90;;;;;;5069060;28;20478;-66
2022/05/25 04:32:45;;;;;;;1.90;1.00;;;13.70;99.90;;;;;;5069464;28;20447;-66
2022/05/25 04:35:13;;;;;;;2.90;1.07;;;13.70;99.90;;;;;;5069409;28;20493;-66
2022/05/25 04:37:56;;;;;;;2.07;1.00;;;13.70;99.90;;;;;;5069214;28;20451;-66
2022/05/25 04:40:27;;;;;;;2.10;1.00;;;13.60;99.90;;;;;;5069237;28;20461;-66
2022/05/25 04:42:55;;;;;;;1.90;1.10;;;13.70;99.90;;;;;;5069355;28;20451;-66
2022/05/25 04:45:25;;;;;;;3.13;0.93;;;13.70;99.90;;;;;;5069232;28;20483;-67
2022/05/25 04:47:54;;;;;;;3.40;1.30;;;13.80;99.90;;;;;;5068949;28;20512;-66
2022/05/25 04:50:22;;;;;;;3.13;1.20;;;13.70;99.90;;;;;;5069115;28;20489;-66
2022/05/25 04:52:49;;;;;;;2.70;1.30;;;13.80;99.90;;;;;;5072925;28;20446;-66
2022/05/25 04:58:21;;;;;;;3.53;1.50;;;13.70;99.90;;;;;;5046785;28;20953;-67
2022/05/25 05:00:48;;;;;;;1.90;1.20;;;13.90;99.90;;;;;;5046168;28;20471;-66
2022/05/25 05:03:17;;;;;;;4.80;1.00;;;14.00;99.90;;;;;;5056022;28;20597;-67
2022/05/25 05:05:45;;;;;;;2.50;1.53;;;14.10;99.90;;;;;;5064809;28;21529;-67
2022/05/25 05:08:12;;;;;;;2.03;0.97;;;14.10;99.90;;;;;;5061226;28;20457;-66
2022/05/25 05:10:39;;;;;;;2.20;1.10;;;14.10;99.90;;;;;;5067111;28;20473;-68
2022/05/25 05:13:07;;;;;;;3.60;1.40;;;14.10;99.90;;;;;;5060509;28;21016;-70
2022/05/25 05:15:35;;;;;;;2.27;1.40;;;14.00;99.90;;;;;;5069572;28;20448;-68
2022/05/25 05:18:02;;;;;;;2.13;1.13;;;13.80;99.90;;;;;;5061537;28;20439;-68
2022/05/25 05:20:31;;;;;;;2.20;1.40;;;13.80;99.90;;;;;;5059556;28;20883;-68
2022/05/25 05:22:59;;;;;;;3.37;1.50;;;13.80;99.90;;;;;;5066235;28;20443;-67
2022/05/25 05:25:27;;;;;;;1.80;1.10;;;13.80;99.90;;;;;;5067056;28;20482;-64
2022/05/25 05:27:53;;;;;;;3.60;1.37;;;13.80;99.90;;;;;;5071674;28;20529;-65
2022/05/25 05:30:22;;;;;;;2.93;1.50;;;13.80;99.90;;;;;;5068102;28;20467;-65
2022/05/25 05:32:50;;;;;;;3.20;1.23;;;13.90;99.90;;;;;;5072260;28;20978;-65
2022/05/25 05:35:17;;;;;;;2.40;1.40;;;13.90;99.90;;;;;;5071874;28;20441;-64
2022/05/25 05:37:50;;;;;;;2.63;1.27;;;13.90;99.90;;;;;;5069950;28;20453;-64
2022/05/25 05:40:20;;;;;;;2.47;1.20;;;14.00;99.90;;;;;;5071594;28;20459;-64
2022/05/25 05:42:49;;;;;;;2.63;1.47;;;14.10;99.90;;;;;;5072136;28;20443;-64
2022/05/25 05:45:18;;;;;;;3.80;1.67;;;14.10;99.90;;;;;;5072007;28;20709;-64
2022/05/25 05:47:50;;;;;;;4.37;1.30;;;14.10;99.90;;;;;;5071952;28;20455;-65
2022/05/25 05:50:18;;;;;;;2.20;1.47;;;14.20;99.90;;;;;;5071075;28;20470;-65
2022/05/25 05:52:48;;;;;;;2.30;1.30;;;14.20;99.90;;;;;;5070988;28;20442;-65
2022/05/25 05:55:15;;;;;;;4.77;1.73;;;14.30;99.90;;;;;;5071889;28;20439;-64
2022/05/25 05:57:42;;;;;;;2.00;1.30;;;14.40;99.90;;;;;;5071718;28;20450;-65
2022/05/25 06:00:10;;;;;;;5.00;1.40;;;14.50;99.90;;;;;;5071457;28;20848;-64
2022/05/25 06:02:37;;;;;;;2.23;1.30;;;14.60;99.90;;;;;;5071403;28;20455;-65
2022/05/25 06:05:04;;;;;;;2.43;1.20;;;14.70;99.90;;;;;;5071678;28;20489;-65
2022/05/25 06:07:31;;;;;;;2.30;1.13;;;14.80;99.90;;;;;;5071728;28;20462;-66
2022/05/25 06:09:59;;;;;;;5.13;1.43;;;14.70;99.90;;;;;;5071432;28;20470;-65
2022/05/25 06:12:27;;;;;;;2.47;1.20;;;14.70;99.90;;;;;;5071364;28;21185;-66
2022/05/25 06:14:54;;;;;;;3.30;1.30;;;14.60;99.90;;;;;;5071568;28;20983;-65
2022/05/25 06:20:06;;;;;;;1.93;1.10;;;14.60;99.90;;;;;;5070862;28;20478;-65
2022/05/25 06:22:33;;;;;;;2.93;1.30;;;14.60;99.90;;;;;;5071138;28;20447;-65
2022/05/25 06:25:02;;;;;;;2.20;1.00;;;14.60;99.90;;;;;;5071182;28;21013;-65
2022/05/25 06:27:29;;;;;;;3.60;1.60;;;14.70;99.90;;;;;;5071060;28;20451;-65
2022/05/25 06:29:56;;;;;;;4.23;1.17;;;14.70;99.90;;;;;;5070695;28;21036;-66
2022/05/25 06:32:24;;;;;;;2.87;1.20;;;14.70;99.90;;;;;;5071190;28;20454;-66
2022/05/25 06:34:51;;;;;;;3.17;1.50;;;15.00;99.90;;;;;;5071093;28;20501;-66
2022/05/25 06:37:19;;;;;;;2.53;1.20;;;15.50;99.90;;;;;;5071099;28;20814;-62
2022/05/25 06:39:46;;;;;;;3.67;1.07;;;16.00;99.90;;;;;;5070590;28;20483;-65
2022/05/25 06:42:15;;;;;;;5.30;1.23;;;16.70;99.90;;;;;;5070745;28;20526;-65
2022/05/25 06:44:44;;;;;;;3.20;1.20;;;17.20;99.90;;;;;;5070625;28;20479;-65
2022/05/25 06:47:14;;;;;;;2.50;1.30;;;17.60;99.90;;;;;;5070917;28;20447;-65
2022/05/25 06:49:41;;;;;;;6.10;1.40;;;17.90;99.90;;;;;;5070588;28;20474;-65
2022/05/25 06:52:09;;;;;;;4.53;1.47;;;17.90;99.90;;;;;;5070690;28;20538;-65
2022/05/25 06:54:36;;;;;;;2.23;1.27;;;17.80;99.90;;;;;;5070746;28;20991;-65
2022/05/25 06:57:03;;;;;;;2.67;1.20;;;18.00;99.90;;;;;;5070542;28;20958;-65
2022/05/25 06:59:32;;;;;;;2.17;1.30;;;18.00;99.90;;;;;;5070692;28;20474;-64
2022/05/25 07:01:59;;;;;;;4.93;1.20;;;17.90;99.90;;;;;;5070211;28;20459;-65
2022/05/25 07:04:26;;;;;;;2.70;1.47;;;17.70;99.90;;;;;;5070433;28;20534;-65
2022/05/25 07:06:53;;;;;;;2.57;1.20;;;17.50;99.90;;;;;;5070762;28;20447;-65
2022/05/25 07:09:19;;;;;;;3.67;1.73;;;17.30;99.90;;;;;;5070503;28;20502;-65
2022/05/25 07:11:51;;;;;;;2.67;1.40;;;17.10;99.90;;;;;;5070142;28;20443;-65
2022/05/25 07:14:17;;;;;;;3.23;1.60;;;16.80;99.90;;;;;;5070130;28;20447;-62
2022/05/25 07:16:46;;;;;;;3.20;1.23;;;16.80;99.90;;;;;;5070462;28;20535;-65
2022/05/25 07:19:12;;;;;;;3.93;1.40;;;16.90;99.90;;;;;;5067114;28;20992;-63
2022/05/25 07:21:39;;;;;;;3.20;1.30;;;16.80;99.90;;;;;;5067822;28;20457;-65
2022/05/25 07:24:07;;;;;;;2.80;1.63;;;16.90;99.90;;;;;;5067131;28;20941;-65
2022/05/25 07:26:34;;;;;;;2.13;1.40;;;17.00;99.90;;;;;;5067983;28;20572;-63
2022/05/25 07:29:02;;;;;;;4.33;2.00;;;16.90;99.90;;;;;;5067448;28;20450;-65
2022/05/25 07:31:32;;;;;;;2.10;1.27;;;16.90;99.90;;;;;;5064078;28;20489;-65
2022/05/25 07:34:04;;;;;;;2.60;1.30;;;17.00;99.90;;;;;;5073920;28;20443;-65
2022/05/25 07:36:34;;;;;;;4.50;1.47;;;17.00;99.90;;;;;;5069513;28;20439;-65
2022/05/25 07:39:04;;;;;;;3.20;1.40;;;17.10;99.90;;;;;;5067975;28;20459;-65
2022/05/25 07:41:34;;;;;;;3.10;1.40;;;17.20;99.90;;;;;;5063064;28;20465;-65
2022/05/25 07:44:01;;;;;;;3.10;1.27;;;17.30;99.90;;;;;;5064881;28;20444;-65
2022/05/25 07:46:29;;;;;;;3.50;1.47;;;17.30;99.90;;;;;;5064072;28;20471;-65
2022/05/25 07:48:57;;;;;;;3.50;1.40;;;17.20;99.90;;;;;;5067891;28;20456;-64
2022/05/25 07:51:26;;;;;;;3.33;1.30;;;17.20;99.90;;;;;;5062860;28;20933;-65
2022/05/25 07:53:57;;;;;;;3.40;1.60;;;17.20;99.90;;;;;;5065238;28;21030;-64
2022/05/25 07:56:24;;;;;;;2.50;1.27;;;17.20;99.90;;;;;;5066548;28;20813;-62
2022/05/25 07:58:51;;;;;;;7.60;1.43;;;17.30;99.90;;;;;;5068245;28;20447;-64
2022/05/25 08:05:43;;;;;;;2.30;1.33;;;17.40;99.90;;;;;;5066902;28;20826;-65
2022/05/25 08:06:54;;;;;;;2.63;1.10;;;17.60;99.90;;;;;;5068656;28;20503;-65
2022/05/25 08:09:21;;;;;;;3.20;1.17;;;17.80;99.90;;;;;;5068860;28;20817;-65
2022/05/25 08:11:48;;;;;;;3.17;1.40;;;18.00;99.90;;;;;;5062761;28;20465;-65
2022/05/25 08:14:15;;;;;;;2.00;1.20;;;18.10;99.90;;;;;;5068063;28;20443;-65
2022/05/25 08:16:42;;;;;;;3.60;1.50;;;18.10;99.90;;;;;;5063801;28;20846;-64
2022/05/25 08:19:09;;;;;;;5.40;1.20;;;18.20;99.90;;;;;;5068974;28;20550;-64
2022/05/25 08:21:36;;;;;;;3.40;1.40;;;18.40;99.90;;;;;;5068371;28;20971;-65
2022/05/25 08:24:04;;;;;;;3.87;1.40;;;18.80;99.90;;;;;;5068722;28;20439;-65
2022/05/25 08:26:31;;;;;;;3.07;1.50;;;19.10;99.90;;;;;;5071041;28;20486;-65
2022/05/25 08:28:58;;;;;;;5.73;1.63;;;19.20;99.80;;;;;;5073227;28;20447;-65
2022/05/25 08:31:24;;;;;;;6.53;1.50;;;18.90;99.90;;;;;;5072776;28;20820;-65
2022/05/25 08:33:51;;;;;;;2.30;1.13;;;19.00;99.90;;;;;;5073038;28;20451;-65
2022/05/25 08:36:18;;;;;;;3.20;1.67;;;19.20;99.90;;;;;;5072896;28;20545;-65
2022/05/25 08:38:45;;;;;;;2.30;1.50;;;19.10;99.40;;;;;;5072671;28;20507;-64
2022/05/25 08:41:14;;;;;;;2.60;1.20;;;19.00;98.80;;;;;;5071954;28;21047;-64
2022/05/25 08:43:43;;;;;;;2.20;1.37;;;19.10;98.40;;;;;;5072743;28;20465;-65
2022/05/25 08:46:14;;;;;;;4.43;1.77;;;19.60;98.60;;;;;;5072317;28;20562;-64
2022/05/25 08:48:42;;;;;;;2.63;1.23;;;20.20;98.40;;;;;;5072465;28;20815;-65
2022/05/25 08:51:12;;;;;;;2.47;1.30;;;20.60;97.60;;;;;;5072032;28;20513;-65
2022/05/25 08:53:40;;;;;;;3.47;1.10;;;20.70;97.70;;;;;;5072620;28;20446;-65
2022/05/25 08:56:18;;;;;;;2.53;1.33;;;20.60;97.30;;;;;;5072807;28;20443;-64
2022/05/25 08:58:48;;;;;;;5.03;1.50;;;20.60;96.80;;;;;;5072532;28;20443;-65
2022/05/25 09:01:22;;;;;;;4.67;1.40;;;20.70;98.10;;;;;;5072210;28;20926;-65
2022/05/25 09:03:58;;;;;;;2.43;1.10;;;20.80;96.90;;;;;;5067296;28;20508;-65
2022/05/25 09:06:34;;;;;;;3.10;1.43;;;20.60;96.20;;;;;;5069859;28;20482;-65
2022/05/25 09:09:06;;;;;;;3.63;1.50;;;20.30;96.70;;;;;;5072194;28;20457;-65
2022/05/25 09:11:41;;;;;;;2.70;1.13;;;19.90;96.70;;;;;;5070394;28;20455;-64
2022/05/25 09:14:15;;;;;;;2.63;1.23;;;19.90;97.80;;;;;;5071967;28;20874;-64
2022/05/25 09:16:44;;;;;;;2.97;1.40;;;20.00;97.70;;;;;;5072762;28;20427;-65
2022/05/25 09:19:17;;;;;;;6.07;1.80;;;20.30;97.40;;;;;;5072474;28;20512;-65
2022/05/25 09:21:49;;;;;;;2.93;1.37;;;20.40;95.80;;;;;;5071585;28;20439;-65
2022/05/25 09:24:20;;;;;;;5.30;1.33;;;20.50;97.50;;;;;;5072095;28;20435;-65
2022/05/25 09:26:49;;;;;;;4.40;1.40;;;20.70;97.10;;;;;;5071449;28;20509;-65
2022/05/25 09:29:16;;;;;;;8.10;1.30;;;21.00;96.30;;;;;;5071832;28;20462;-65
2022/05/25 09:31:47;;;;;;;3.50;1.20;;;21.20;95.20;;;;;;5051915;28;20448;-64
2022/05/25 09:34:23;;;;;;;2.63;0.93;;;20.80;94.40;;;;;;5052177;28;20443;-65
2022/05/25 09:36:57;;;;;;;2.33;1.30;;;20.80;94.20;;;;;;5051457;28;20454;-64
2022/05/25 09:39:30;;;;;;;2.23;1.30;;;20.90;93.70;;;;;;5052175;28;20474;-65
2022/05/25 09:42:00;;;;;;;3.73;1.50;;;20.80;92.70;;;;;;5052031;28;20822;-65
2022/05/25 09:44:29;;;;;;;3.00;1.57;;;20.80;92.70;;;;;;5067643;28;20528;-64
2022/05/25 09:47:00;;;;;;;7.47;1.43;;;20.60;94.30;;;;;;5070950;28;20493;-65
2022/05/25 09:49:38;;;;;;;4.93;1.37;;;20.80;92.80;;;;;;5071433;28;21032;-65
2022/05/25 09:52:12;;;;;;;2.93;1.10;;;20.60;91.70;;;;;;5071513;28;20439;-65
2022/05/25 09:54:45;;;;;;;2.77;1.10;;;20.30;92.90;;;;;;5071574;28;20872;-65
2022/05/25 09:57:27;;;;;;;2.53;0.90;;;20.50;93.00;;;;;;5071951;28;20933;-65
2022/05/25 10:00:00;;;;;;;3.67;0.90;;;20.80;95.10;;;;;;5071330;28;20524;-66
2022/05/25 10:02:34;;;;;;;3.30;1.20;;;21.00;92.60;;;;;;5071806;28;20459;-65
2022/05/25 10:05:15;;;;;;;3.60;1.20;;;20.90;91.70;;;;;;5071587;28;20451;-65
2022/05/25 10:07:51;;;;;;;4.00;1.47;;;21.30;92.00;;;;;;5071520;28;20454;-63
2022/05/25 10:10:27;;;;;;;2.93;1.10;;;22.20;91.20;;;;;;5070808;28;21002;-65
2022/05/25 10:13:02;;;;;;;4.37;1.23;;;22.90;90.90;;;;;;5071695;28;20847;-65
2022/05/25 10:15:31;;;;;;;2.67;1.10;;;23.30;90.00;;;;;;5070862;28;20526;-64
2022/05/25 10:17:59;;;;;;;9.23;1.80;;;22.80;86.00;;;;;;5071189;28;20447;-65
2022/05/25 10:20:28;;;;;;;2.33;1.07;;;22.50;87.60;;;;;;5071052;28;20474;-65
2022/05/25 10:23:04;;;;;;;4.00;1.00;;;22.70;90.40;;;;;;5070788;28;20539;-65
2022/05/25 10:25:40;;;;;;;1.80;0.90;;;23.00;90.10;;;;;;5071142;28;20450;-65
2022/05/25 10:28:20;;;;;;;3.60;1.40;;;23.60;88.40;;;;;;5070957;28;20451;-65
2022/05/25 10:36:49;;;;;;;7.20;0.97;;;23.80;85.20;;;;;;5070927;28;20414;-65
2022/05/25 10:39:20;;;;;;;2.67;0.90;;;24.00;85.20;;;;;;5070778;28;20466;-65
2022/05/25 10:42:00;;;;;;;3.43;1.20;;;24.80;81.00;;;;;;5070511;28;20458;-65
2022/05/25 10:44:35;;;;;;;3.63;0.97;;;25.50;80.60;;;;;;5070337;28;21012;-65
2022/05/25 10:47:02;;;;;;;2.90;1.27;;;25.40;77.80;;;;;;5070097;28;20860;-65
2022/05/25 10:49:36;;;;;;;2.60;1.00;;;24.20;78.10;;;;;;5069446;28;20542;-65
2022/05/25 10:52:08;;;;;;;3.20;1.10;;;23.00;81.50;;;;;;5070081;28;20795;-63
2022/05/25 10:54:50;;;;;;;4.00;1.30;;;22.80;81.30;;;;;;5070600;28;21083;-65
2022/05/25 10:57:50;;;;;;;4.57;1.20;;;22.80;85.50;;;;;;5067007;28;20455;-65
2022/05/25 11:00:21;;;;;;;2.73;0.90;;;23.40;82.10;;;;;;5066044;28;20552;-65
2022/05/25 11:03:26;;;;;;;1.97;0.97;;;23.80;80.80;;;;;;5067242;28;20435;-64
2022/05/25 11:05:57;;;;;;;4.33;1.10;;;23.70;78.80;;;;;;5066468;28;20435;-65
2022/05/25 11:08:38;;;;;;;3.43;1.20;;;23.40;79.80;;;;;;5070458;28;20439;-66
2022/05/25 11:11:13;;;;;;;3.47;1.10;;;23.20;78.80;;;;;;5069968;28;20463;-65
2022/05/25 11:14:03;;;;;;;4.70;0.80;;;23.50;77.70;;;;;;5070271;28;20442;-65
2022/05/25 11:16:42;;;;;;;2.30;0.80;;;24.00;75.90;;;;;;5070128;28;20451;-65
2022/05/25 11:19:45;;;;;;;2.73;1.17;;;24.90;77.10;;;;;;5070042;28;20463;-65
2022/05/25 11:22:26;;;;;;;3.80;1.00;;;25.00;76.30;;;;;;5056849;28;20455;-65
2022/05/25 11:25:23;;;;;;;2.63;1.00;;;23.90;76.70;;;;;;5070249;28;20449;-64
2022/05/25 11:28:06;;;;;;;2.20;0.97;;;23.00;77.90;;;;;;5051546;28;20479;-65
2022/05/25 11:30:41;;;;;;;2.70;0.90;;;22.20;78.00;;;;;;5069939;28;20459;-65
2022/05/25 11:33:27;;;;;;;3.70;1.30;;;21.80;79.40;;;;;;5070012;28;20537;-64
2022/05/25 11:36:05;;;;;;;2.50;1.07;;;21.90;81.40;;;;;;5054212;28;20443;-66
2022/05/25 11:39:00;;;;;;;3.93;1.13;;;22.00;83.20;;;;;;5069763;28;20449;-65
2022/05/25 11:41:37;;;;;;;4.90;1.30;;;22.00;81.60;;;;;;5069591;28;20470;-66
2022/05/25 11:44:31;;;;;;;2.50;1.10;;;22.10;82.30;;;;;;5069621;28;20454;-65
2022/05/25 11:47:07;;;;;;;2.40;1.10;;;22.40;80.80;;;;;;5067835;28;20859;-66
2022/05/25 11:49:46;;;;;;;3.90;1.20;;;22.80;83.10;;;;;;5063265;28;20862;-64
2022/05/25 11:52:37;;;;;;;2.73;1.00;;;23.40;80.40;;;;;;5064834;28;20463;-65
2022/05/25 11:55:13;;;;;;;2.97;1.00;;;24.20;77.00;;;;;;5047784;28;20530;-65
2022/05/25 11:57:46;;;;;;;1.73;0.67;;;25.20;73.20;;;;;;5063247;28;20525;-66
2022/05/25 12:00:28;;;;;;;2.07;0.93;;;26.00;74.00;;;;;;5066482;28;20476;-64
2022/05/25 12:03:25;;;;;;;4.03;1.10;;;26.10;72.60;;;;;;5064413;28;20439;-64
2022/05/25 12:06:06;;;;;;;2.40;1.00;;;25.90;69.10;;;;;;5069505;28;20446;-65
2022/05/25 12:09:03;;;;;;;3.80;0.97;;;26.30;76.40;;;;;;5067211;28;20472;-65
2022/05/25 12:11:39;;;;;;;2.60;1.00;;;26.50;70.30;;;;;;5057232;28;20455;-65
2022/05/25 12:14:36;;;;;;;3.00;1.03;;;26.10;66.90;;;;;;5064616;28;20996;-65
2022/05/25 12:17:13;;;;;;;1.90;0.90;;;25.30;67.90;;;;;;5065599;28;20827;-65
2022/05/25 12:19:41;;;;;;;5.63;1.10;;;24.50;70.60;;;;;;5067698;28;20493;-66
2022/05/25 12:22:11;;;;;;;3.03;1.00;;;24.50;73.40;;;;;;5062820;28;20501;-62
2022/05/25 12:24:41;;;;;;;3.30;1.23;;;25.00;73.30;;;;;;5059779;28;20964;-65
2022/05/25 12:27:12;;;;;;;4.30;1.10;;;25.50;76.10;;;;;;5059169;28;21170;-65
2022/05/25 12:29:43;;;;;;;2.87;0.90;;;25.80;68.10;;;;;;5067982;28;20463;-65
2022/05/25 12:32:11;;;;;;;3.80;0.87;;;26.20;68.50;;;;;;5068268;28;20443;-65
2022/05/25 12:34:41;;;;;;;3.10;1.20;;;26.40;66.90;;;;;;5062909;28;20443;-66
2022/05/25 12:37:11;;;;;;;4.73;1.07;;;26.00;68.30;;;;;;5067010;28;20900;-65
2022/05/25 12:39:59;;;;;;;5.83;1.00;;;26.10;66.90;;;;;;5061909;28;20467;-65
2022/05/25 12:42:41;;;;;;;7.10;1.30;;;25.30;64.10;;;;;;5067816;28;20447;-65
2022/05/25 12:48:33;;;;;;;4.10;1.00;;;23.70;70.50;;;;;;5067747;28;20560;-65
2022/05/25 12:51:06;;;;;;;2.40;1.20;;;23.10;70.00;;;;;;5067317;28;20502;-65
2022/05/25 12:53:38;;;;;;;3.33;1.00;;;23.70;71.60;;;;;;5067728;28;20439;-66
2022/05/25 12:56:10;;;;;;;6.63;1.17;;;24.60;69.80;;;;;;5067904;28;20539;-65
2022/05/25 12:58:52;;;;;;;3.17;0.97;;;25.10;68.30;;;;;;5068627;28;20455;-65
2022/05/25 13:01:40;;;;;;;2.40;0.80;;;26.10;68.20;;;;;;5065038;28;20455;-66
2022/05/25 13:04:42;;;;;;;3.77;1.10;;;27.50;64.30;;;;;;5059713;28;20538;-65
2022/05/25 13:07:36;;;;;;;1.60;0.73;;;27.60;61.50;;;;;;5034880;28;20486;-64
2022/05/25 13:10:09;;;;;;;4.07;1.00;;;26.80;58.80;;;;;;5069485;28;20467;-65
2022/05/25 13:12:59;;;;;;;2.83;1.07;;;26.70;64.20;;;;;;5070749;28;20465;-65
2022/05/25 13:15:47;;;;;;;2.87;1.13;;;26.90;60.40;;;;;;5070970;28;20481;-65
2022/05/25 13:18:54;;;;;;;3.00;0.90;;;27.50;60.20;;;;;;5072430;28;20432;-65
2022/05/25 13:21:37;;;;;;;2.60;1.17;;;28.30;58.00;;;;;;5072555;28;20542;-65
2022/05/25 13:24:32;;;;;;;2.60;0.97;;;29.00;57.00;;;;;;5072076;28;20439;-65
2022/05/25 13:27:21;;;;;;;3.10;1.17;;;29.20;54.90;;;;;;5041825;28;20487;-65
2022/05/25 13:30:04;;;;;;;5.20;0.93;;;29.60;56.10;;;;;;5072011;28;21019;-64
2022/05/25 13:32:38;;;;;;;2.80;0.97;;;30.00;54.20;;;;;;5071965;28;20447;-65
2022/05/25 13:35:29;;;;;;;4.73;1.00;;;29.90;55.70;;;;;;5071314;28;20447;-65
2022/05/25 13:38:00;;;;;;;3.30;0.90;;;31.30;53.90;;;;;;5070977;28;20517;-65